AirNav   ProFlight Series 2 Aviation Headset
 
 1010 users online  

69MI Sparrow Clinton Hospital Heliport
St Johns, Michigan, USA

GOING TO ST JOHNS?


FAA INFORMATION EFFECTIVE 18 JUNE 2020

Location

FAA Identifier: 69MI
Lat/Long: 42-59-35.3900N 084-33-13.5000W
42-59.589833N 084-33.225000W
42.9931639,-84.5537500
(estimated)
Elevation: 776 ft. / 237 m (estimated)
From city: 1 mile SE of ST JOHNS, MI
Time zone: UTC -4 (UTC -5 during Standard Time)
Zip code: 48879

Heliport Operations

Heliport use: Private use. Permission required prior to landing
Activation date: 11/2017
Control tower: no
ARTCC: CLEVELAND CENTER
FSS: LANSING FLIGHT SERVICE STATION
Attendance: 
Segmented circle: no

Heliport Communications

WX ASOS at LAN (13 nm S): 119.75 (517-908-8494)
WX AWOS-3 at RNP (18 nm E): 118.025 (989-729-2967)

Nearby radio navigation aids

VOR radial/distance  VOR name  Freq  Var
FNTr279/35.4FLINT VORTAC116.9006W
MBSr216/38.4SAGINAW VOR/DME112.9003W
MOPr173/38.6MOUNT PLEASANT VOR/DME110.6005W

Heliport Services

Runway Information

Helipad H1

Dimensions: 43 x 43 ft. / 13 x 13 m
Surface: asphalt, in good condition
Latitude: 42-59.589833N
Longitude: 084-33.225000W
Elevation: 776.0 ft.
Traffic pattern: leftleft

Heliport Ownership and Management from official FAA records

Ownership: Privately-owned
Owner: SPARROW CLINTON HOSPITAL
805 S OAKLAND ST
SAINT JOHNS, MI 48879-2253
Phone 989-227-3400
Manager: GREGORY HARRISON
SPARROW CLINTON HOSPITAL, 805 S OAKLAND ST
SAINT JOHNS, MI 48879-2253
Phone 989-227-3400

Additional Remarks

FOR CD CTC GREAT LAKES APCH AT 269-459-3345, WHEN APCH CLSD CTC CLEVELAND ARTCC AT 440-774-0224/0490.

Instrument Procedures

There are no published instrument procedures at 69MI.

Some nearby airports with instrument procedures:

KLAN - Capital Region International Airport (13 nm S)
4D0 - Abrams Municipal Airport (15 nm SW)
KRNP - Owosso Community Airport (18 nm E)
KAMN - Gratiot Community Airport (21 nm N)
Y70 - Ionia County Airport (22 nm W)
 
Loc | Ops | Rwys | IFR | FBO | Links
Com | Nav | Svcs | Stats | Notes
Aerial photo
No photo
 
Airport distance calculator
Flying to Sparrow Clinton Hospital Heliport? Find the distance to fly.

From to 69MI

Sunrise and sunset
Times for 07-Jul-2020
 Local
(UTC-4)
 Zulu
(UTC)
Morning civil twilight05:3309:33
Sunrise06:0810:08
Sunset21:1801:18
Evening civil twilight21:5301:53

Current date and time
Zulu (UTC)  08-Jul-2020 02:14:23
Local (UTC-4)  07-Jul-2020 22:14:23
 
METAR
KLAN 
13nm S 
080153Z 16003KT 10SM CLR 25/18 A2994 RMK AO2 SLP133 T02500183
KRNP 
18nm E 
080155Z AUTO 00000KT 10SM CLR 23/20 A2992 RMK AO2 T02310200
KAMN 
20nm N 
080155Z AUTO 19005KT 10SM CLR 24/20 A2993 RMK AO2 T02350201
TAF
KLAN 
13nm S 
071732Z 0718/0818 26010KT P6SM VCTS SCT050CB SCT120 SCT250 TEMPO 0719/0723 VRB12G25KT 3SM TSRA OVC035CB FM072300 26008KT P6SM SCT040 FM080100 00000KT P6SM SKC FM081200 11003KT P6SM BKN045 FM081700 18006KT P6SM SCT070
NOTAMs
Click for the latest NOTAMs
NOTAMs are issued by the DoD/FAA and will open in a separate window not controlled by AirNav.

 

 
 

Would you like to see your business listed on this page?

 If your business provides an interesting product or service to pilots, flight crews, aircraft, or users of the Sparrow Clinton Hospital Heliport, you should consider listing it here.  To start the listing process, click on the button below
 
Add a business
 

Other Pages about Sparrow Clinton Hospital Heliport

Update a link
 
Copyright © AirNav, LLC. All rights reserved. Privacy Policy  Contact